createdAt,value
2023-01-29T00:00:51.780Z,21.64
2023-01-29T00:01:56.072Z,21.63
2023-01-29T00:03:00.492Z,21.6
2023-01-29T00:04:05.073Z,21.6
2023-01-29T00:05:25.772Z,21.57
2023-01-29T00:06:31.975Z,21.57
2023-01-29T00:07:36.201Z,21.55
2023-01-29T00:08:40.443Z,21.55
2023-01-29T00:09:44.825Z,21.58
2023-01-29T00:10:49.105Z,21.56
2023-01-29T00:11:53.328Z,21.55
2023-01-29T00:12:57.612Z,21.53
2023-01-29T00:14:01.885Z,21.57
2023-01-29T00:15:06.126Z,21.58
2023-01-29T00:16:10.365Z,21.52
2023-01-29T00:17:14.717Z,21.51
2023-01-29T00:18:19.221Z,21.54
2023-01-29T00:19:23.529Z,21.52
2023-01-29T00:20:27.774Z,21.49
2023-01-29T00:21:32.080Z,21.51
2023-01-29T00:22:36.305Z,21.5
2023-01-29T00:23:40.555Z,21.51
2023-01-29T00:24:44.799Z,21.51
2023-01-29T00:25:49.042Z,21.51
2023-01-29T00:26:53.320Z,21.5
2023-01-29T00:27:57.573Z,21.49
2023-01-29T00:29:01.818Z,21.47
2023-01-29T00:30:06.034Z,21.47
2023-01-29T00:31:10.367Z,21.49
2023-01-29T00:32:15.122Z,21.48
2023-01-29T00:33:19.921Z,21.47
2023-01-29T00:34:24.162Z,21.47
2023-01-29T00:35:28.420Z,21.46
2023-01-29T00:36:32.676Z,21.44
2023-01-29T00:37:36.911Z,21.43
2023-01-29T00:38:41.142Z,21.42
2023-01-29T00:39:48.009Z,21.44
2023-01-29T00:40:52.593Z,21.44
2023-01-29T00:41:56.911Z,21.43
2023-01-29T00:43:01.158Z,21.41
2023-01-29T00:44:05.408Z,21.41
2023-01-29T00:45:09.675Z,21.39
2023-01-29T00:46:14.025Z,21.38
2023-01-29T00:47:18.456Z,21.38
2023-01-29T00:48:22.728Z,21.41
2023-01-29T00:49:26.990Z,21.4
2023-01-29T00:50:31.240Z,21.4
2023-01-29T00:51:35.504Z,21.38
2023-01-29T00:52:39.729Z,21.35
2023-01-29T00:53:43.976Z,21.35
2023-01-29T00:54:48.224Z,21.34
2023-01-29T00:55:52.508Z,21.37
2023-01-29T00:56:56.770Z,21.36
2023-01-29T00:58:01.034Z,21.37
2023-01-29T00:59:05.302Z,21.38
2023-01-29T01:00:09.597Z,21.34
2023-01-29T01:01:13.933Z,21.33
2023-01-29T01:02:18.410Z,21.32
2023-01-29T01:03:22.990Z,21.34
2023-01-29T01:04:27.273Z,21.36
2023-01-29T01:05:31.519Z,21.35
2023-01-29T01:06:35.749Z,21.33
2023-01-29T01:07:39.996Z,21.34
2023-01-29T01:08:44.332Z,21.34
2023-01-29T01:09:48.550Z,21.33
2023-01-29T01:10:52.757Z,21.31
2023-01-29T01:11:56.971Z,21.33
2023-01-29T01:13:01.228Z,21.33
2023-01-29T01:14:05.516Z,21.32
2023-01-29T01:15:09.744Z,21.31
2023-01-29T01:16:14.128Z,21.32
2023-01-29T01:17:18.511Z,21.32
2023-01-29T01:18:22.748Z,21.3
2023-01-29T01:19:27.035Z,21.28
2023-01-29T01:20:31.299Z,21.22
2023-01-29T01:21:35.534Z,21.25
2023-01-29T01:22:39.792Z,21.24
2023-01-29T01:23:44.017Z,21.23
2023-01-29T01:24:48.276Z,21.25
2023-01-29T01:25:52.522Z,21.26
2023-01-29T01:26:56.774Z,21.27
2023-01-29T01:29:04.418Z,21.24
2023-01-29T01:30:08.651Z,21.26
2023-01-29T01:31:13.030Z,21.23
2023-01-29T01:32:17.540Z,21.24
2023-01-29T01:33:21.787Z,21.25
2023-01-29T01:34:26.035Z,21.25
2023-01-29T01:35:30.326Z,21.26
2023-01-29T01:36:34.556Z,21.23
2023-01-29T01:37:38.881Z,21.25
2023-01-29T01:38:43.125Z,21.27
2023-01-29T01:39:47.404Z,21.25
2023-01-29T01:40:51.669Z,21.27
2023-01-29T01:41:55.925Z,21.27
2023-01-29T01:43:00.211Z,21.23
2023-01-29T01:44:04.482Z,21.24
2023-01-29T01:45:08.720Z,21.22
2023-01-29T01:46:12.956Z,21.23
2023-01-29T01:47:17.297Z,21.2
2023-01-29T01:48:21.575Z,21.21
2023-01-29T01:49:25.822Z,21.19
2023-01-29T01:50:30.092Z,21.2
2023-01-29T01:51:34.355Z,21.21
2023-01-29T01:52:38.593Z,21.19
2023-01-29T01:53:42.842Z,21.15
2023-01-29T01:54:47.134Z,21.18
2023-01-29T01:55:51.444Z,21.2
2023-01-29T01:56:55.727Z,21.2
2023-01-29T01:57:59.957Z,21.21
2023-01-29T01:59:04.266Z,21.22
2023-01-29T02:00:08.523Z,21.21
2023-01-29T02:01:12.810Z,21.22
2023-01-29T02:02:17.354Z,21.2
2023-01-29T02:03:21.834Z,21.18
2023-01-29T02:04:26.094Z,21.18
2023-01-29T02:05:30.330Z,21.21
2023-01-29T02:06:34.580Z,21.18
2023-01-29T02:07:38.826Z,21.19
2023-01-29T02:08:43.062Z,21.21
2023-01-29T02:09:47.363Z,21.19
2023-01-29T02:10:51.601Z,21.22
2023-01-29T02:11:55.845Z,21.2
2023-01-29T02:13:00.101Z,21.18
2023-01-29T02:14:04.352Z,21.17
2023-01-29T02:15:08.651Z,21.15
2023-01-29T02:16:12.909Z,21.15
2023-01-29T02:17:17.270Z,21.15
2023-01-29T02:18:21.667Z,21.16
2023-01-29T02:19:25.915Z,21.15
2023-01-29T02:20:30.171Z,21.16
2023-01-29T02:21:34.417Z,21.16
2023-01-29T02:22:38.700Z,21.16
2023-01-29T02:23:42.985Z,21.16
2023-01-29T02:24:47.343Z,21.13
2023-01-29T02:25:51.705Z,21.14
2023-01-29T02:26:55.932Z,21.15
2023-01-29T02:28:00.228Z,21.14
2023-01-29T02:29:04.500Z,21.13
2023-01-29T02:30:08.738Z,21.16
2023-01-29T02:31:13.004Z,21.15
2023-01-29T02:32:17.578Z,21.14
2023-01-29T02:33:21.844Z,21.13
2023-01-29T02:34:26.096Z,21.13
2023-01-29T02:35:30.333Z,21.12
2023-01-29T02:36:34.663Z,21.13
2023-01-29T02:37:38.915Z,21.1
2023-01-29T02:38:43.174Z,21.11
2023-01-29T02:39:47.429Z,21.11
2023-01-29T02:40:51.674Z,21.09
2023-01-29T02:41:55.952Z,21.09
2023-01-29T02:43:00.204Z,21.08
2023-01-29T02:44:04.473Z,21.08
2023-01-29T02:45:08.708Z,21.09
2023-01-29T02:46:13.012Z,21.08
2023-01-29T02:47:17.459Z,21.09
2023-01-29T02:48:21.685Z,21.1
2023-01-29T02:49:25.952Z,21.09
2023-01-29T02:50:30.203Z,21.07
2023-01-29T02:51:34.441Z,21.04
2023-01-29T02:52:38.716Z,21.04
2023-01-29T02:53:42.958Z,21.03
2023-01-29T02:54:47.255Z,21.04
2023-01-29T02:55:51.512Z,21.04
2023-01-29T02:56:55.803Z,21.04
2023-01-29T02:58:00.118Z,21.03
2023-01-29T02:59:04.413Z,21.04
2023-01-29T03:00:08.703Z,21.02
2023-01-29T03:01:13.079Z,21
2023-01-29T03:02:17.479Z,21
2023-01-29T03:03:21.770Z,20.99
2023-01-29T03:04:26.000Z,21
2023-01-29T03:05:30.337Z,20.99
2023-01-29T03:06:34.578Z,21
2023-01-29T03:07:38.824Z,21.01
2023-01-29T03:08:43.249Z,20.99
2023-01-29T03:09:47.532Z,20.99
2023-01-29T03:10:51.764Z,21.02
2023-01-29T03:11:56.006Z,21
2023-01-29T03:13:00.292Z,20.98
2023-01-29T03:14:04.596Z,20.94
2023-01-29T03:15:08.889Z,20.94
2023-01-29T03:16:13.149Z,20.93
2023-01-29T03:17:17.542Z,20.95
2023-01-29T03:18:21.791Z,20.95
2023-01-29T03:19:26.053Z,20.94
2023-01-29T03:20:30.299Z,20.96
2023-01-29T03:21:34.620Z,20.97
2023-01-29T03:22:38.915Z,20.97
2023-01-29T03:23:43.155Z,20.96
2023-01-29T03:24:47.445Z,20.96
2023-01-29T03:25:51.766Z,20.96
2023-01-29T03:26:56.018Z,20.94
2023-01-29T03:28:00.296Z,20.95
2023-01-29T03:29:04.537Z,20.94
2023-01-29T03:30:08.780Z,20.95
2023-01-29T03:31:13.079Z,20.92
2023-01-29T03:32:17.456Z,20.94
2023-01-29T03:33:21.716Z,20.92
2023-01-29T03:34:26.090Z,20.92
2023-01-29T03:35:30.342Z,20.93
2023-01-29T03:36:34.574Z,20.91
2023-01-29T03:37:38.817Z,20.91
2023-01-29T03:38:43.135Z,20.9
2023-01-29T03:39:47.388Z,20.9
2023-01-29T03:40:51.715Z,20.9
2023-01-29T03:41:55.985Z,20.91
2023-01-29T03:43:00.252Z,20.89
2023-01-29T03:44:04.468Z,20.89
2023-01-29T03:45:08.706Z,20.9
2023-01-29T03:46:12.953Z,20.91
2023-01-29T03:47:17.247Z,20.91
2023-01-29T03:48:21.526Z,20.9
2023-01-29T03:49:25.757Z,20.88
2023-01-29T03:50:29.985Z,20.9
2023-01-29T03:51:34.254Z,20.9
2023-01-29T03:52:38.508Z,20.88
2023-01-29T03:53:42.804Z,20.87
2023-01-29T03:54:47.056Z,20.89
2023-01-29T03:55:51.331Z,20.88
2023-01-29T03:56:55.584Z,20.87
2023-01-29T03:57:59.859Z,20.86
2023-01-29T03:59:04.120Z,20.88
2023-01-29T04:00:08.385Z,20.87
2023-01-29T04:01:12.669Z,20.83
2023-01-29T04:02:17.039Z,20.8
2023-01-29T04:03:21.287Z,20.81
2023-01-29T04:04:25.611Z,20.83
2023-01-29T04:05:30.051Z,20.84
2023-01-29T04:06:34.314Z,20.84
2023-01-29T04:07:38.580Z,20.87
2023-01-29T04:08:42.913Z,20.86
2023-01-29T04:09:47.134Z,20.86
2023-01-29T04:10:51.422Z,20.83
2023-01-29T04:11:55.765Z,20.82
2023-01-29T04:13:00.027Z,20.84
2023-01-29T04:14:04.509Z,20.84
2023-01-29T04:15:08.746Z,20.85
2023-01-29T04:16:13.051Z,20.85
2023-01-29T04:17:17.385Z,20.87
2023-01-29T04:18:21.691Z,20.86
2023-01-29T04:19:25.948Z,20.83
2023-01-29T04:20:30.196Z,20.83
2023-01-29T04:21:34.433Z,20.82
2023-01-29T04:22:38.666Z,20.82
2023-01-29T04:23:42.928Z,20.81
2023-01-29T04:24:47.202Z,20.83
2023-01-29T04:25:51.483Z,20.83
2023-01-29T04:26:55.753Z,20.85
2023-01-29T04:28:00.007Z,20.82
2023-01-29T04:29:04.324Z,20.81
2023-01-29T04:30:08.568Z,20.82
2023-01-29T04:31:13.014Z,20.82
2023-01-29T04:32:17.665Z,20.81
2023-01-29T04:33:21.917Z,20.79
2023-01-29T04:34:26.257Z,20.81
2023-01-29T04:35:30.509Z,20.8
2023-01-29T04:36:34.820Z,20.81
2023-01-29T04:37:39.069Z,20.82
2023-01-29T04:38:43.348Z,20.8
2023-01-29T04:39:47.587Z,20.82
2023-01-29T04:40:51.845Z,20.81
2023-01-29T04:41:56.088Z,20.78
2023-01-29T04:43:00.356Z,20.76
2023-01-29T04:44:04.597Z,20.76
2023-01-29T04:45:08.842Z,20.79
2023-01-29T04:46:13.079Z,20.79
2023-01-29T04:47:17.342Z,20.76
2023-01-29T04:48:21.756Z,20.76
2023-01-29T04:49:26.006Z,20.76
2023-01-29T04:50:30.220Z,20.73
2023-01-29T04:51:34.533Z,20.72
2023-01-29T04:52:38.802Z,20.72
2023-01-29T04:53:43.035Z,20.73
2023-01-29T04:54:47.285Z,20.73
2023-01-29T04:55:51.544Z,20.73
2023-01-29T04:56:55.796Z,20.77
2023-01-29T04:58:00.096Z,20.77
2023-01-29T04:59:04.381Z,20.78
2023-01-29T05:00:08.680Z,20.76
2023-01-29T05:01:12.936Z,20.74
2023-01-29T05:02:17.210Z,20.75
2023-01-29T05:03:21.458Z,20.74
2023-01-29T05:04:25.700Z,20.76
2023-01-29T05:05:29.944Z,20.74
2023-01-29T05:06:34.196Z,20.76
2023-01-29T05:07:38.464Z,20.78
2023-01-29T05:08:42.866Z,20.8
2023-01-29T05:09:47.118Z,20.76
2023-01-29T05:10:51.344Z,20.74
2023-01-29T05:11:55.563Z,20.73
2023-01-29T05:12:59.846Z,20.75
2023-01-29T05:14:04.094Z,20.74
2023-01-29T05:15:08.347Z,20.73
2023-01-29T05:16:12.638Z,20.77
2023-01-29T05:17:17.115Z,20.78
2023-01-29T05:18:21.344Z,20.78
2023-01-29T05:19:25.596Z,20.77
2023-01-29T05:20:29.876Z,20.75
2023-01-29T05:21:34.122Z,20.73
2023-01-29T05:22:38.453Z,20.75
2023-01-29T05:23:42.698Z,20.77
2023-01-29T05:24:46.956Z,20.83
2023-01-29T05:25:51.368Z,20.91
2023-01-29T05:26:55.596Z,21
2023-01-29T05:27:59.845Z,21.08
2023-01-29T05:29:04.125Z,21.18
2023-01-29T05:30:08.364Z,21.31
2023-01-29T05:31:12.813Z,21.41
2023-01-29T05:32:17.453Z,21.51
2023-01-29T05:33:21.719Z,21.62
2023-01-29T05:34:25.985Z,21.73
2023-01-29T05:35:30.264Z,21.84
2023-01-29T05:36:34.567Z,21.92
2023-01-29T05:37:38.800Z,22.06
2023-01-29T05:38:43.078Z,22.14
2023-01-29T05:39:47.329Z,22.21
2023-01-29T05:40:51.617Z,22.29
2023-01-29T05:41:55.864Z,22.34
2023-01-29T05:43:00.142Z,22.37
2023-01-29T05:44:04.420Z,22.42
2023-01-29T05:45:08.699Z,22.46
2023-01-29T05:46:13.203Z,22.49
2023-01-29T05:47:17.583Z,22.51
2023-01-29T05:48:21.840Z,22.53
2023-01-29T05:49:26.455Z,22.54
2023-01-29T05:50:30.717Z,22.53
2023-01-29T05:51:34.966Z,22.53
2023-01-29T05:52:39.186Z,22.57
2023-01-29T05:53:43.454Z,22.57
2023-01-29T05:54:47.723Z,22.58
2023-01-29T05:55:51.966Z,22.61
2023-01-29T05:56:56.391Z,22.57
2023-01-29T05:58:00.651Z,22.59
2023-01-29T05:59:08.121Z,22.61
2023-01-29T06:00:12.368Z,22.59
2023-01-29T06:01:17.118Z,22.6
2023-01-29T06:02:21.608Z,22.58
2023-01-29T06:03:25.864Z,22.57
2023-01-29T06:04:30.124Z,22.53
2023-01-29T06:05:34.382Z,22.52
2023-01-29T06:06:38.605Z,22.5
2023-01-29T06:07:43.752Z,22.45
2023-01-29T06:08:48.083Z,22.42
2023-01-29T06:09:52.378Z,22.38
2023-01-29T06:10:56.639Z,22.36
2023-01-29T06:12:00.872Z,22.32
2023-01-29T06:13:05.128Z,22.28
2023-01-29T06:14:09.377Z,22.26
2023-01-29T06:15:13.652Z,22.22
2023-01-29T06:16:18.021Z,22.19
2023-01-29T06:17:22.673Z,22.18
2023-01-29T06:18:26.953Z,22.12
2023-01-29T06:19:31.192Z,22.08
2023-01-29T06:20:35.428Z,22.07
2023-01-29T06:21:39.704Z,22.03
2023-01-29T06:22:43.956Z,22.01
2023-01-29T06:23:48.198Z,21.98
2023-01-29T06:24:52.518Z,21.97
2023-01-29T06:25:56.780Z,21.94
2023-01-29T06:27:01.102Z,21.92
2023-01-29T06:28:05.410Z,21.89
2023-01-29T06:29:09.653Z,21.86
2023-01-29T06:30:14.060Z,21.85
2023-01-29T06:31:36.516Z,21.82
2023-01-29T06:32:43.054Z,21.8
2023-01-29T06:33:47.368Z,21.79
2023-01-29T06:34:51.658Z,21.77
2023-01-29T06:35:55.905Z,21.74
2023-01-29T06:37:00.145Z,21.74
2023-01-29T06:38:04.418Z,21.72
2023-01-29T06:39:08.709Z,21.73
2023-01-29T06:40:12.969Z,21.71
2023-01-29T06:41:18.117Z,21.7
2023-01-29T06:42:22.342Z,21.7
2023-01-29T06:43:26.582Z,21.68
2023-01-29T06:44:30.859Z,21.66
2023-01-29T06:45:35.186Z,21.65
2023-01-29T06:46:39.509Z,21.64
2023-01-29T06:47:43.748Z,21.64
2023-01-29T06:48:48.000Z,21.62
2023-01-29T06:49:52.422Z,21.6
2023-01-29T06:50:56.656Z,21.59
2023-01-29T06:52:00.896Z,21.57
2023-01-29T06:53:05.193Z,21.56
2023-01-29T06:54:09.411Z,21.57
2023-01-29T06:55:13.650Z,21.55
2023-01-29T06:56:17.899Z,21.55
2023-01-29T06:57:22.192Z,21.57
2023-01-29T06:58:26.437Z,21.58
2023-01-29T06:59:30.684Z,21.61
2023-01-29T07:00:34.999Z,21.63
2023-01-29T07:01:39.369Z,21.65
2023-01-29T07:02:43.879Z,21.68
2023-01-29T07:03:48.136Z,21.7
2023-01-29T07:04:52.398Z,21.71
2023-01-29T07:05:56.678Z,21.73
2023-01-29T07:07:00.936Z,21.74
2023-01-29T07:08:05.291Z,21.76
2023-01-29T07:09:09.527Z,21.77
2023-01-29T07:10:13.830Z,21.77
2023-01-29T07:11:18.988Z,21.76
2023-01-29T07:12:23.244Z,21.77
2023-01-29T07:13:27.480Z,21.77
2023-01-29T07:14:31.742Z,21.77
2023-01-29T07:15:37.251Z,21.74
2023-01-29T07:16:41.657Z,21.73
2023-01-29T07:17:46.064Z,21.73
2023-01-29T07:18:50.301Z,21.72
2023-01-29T07:19:54.561Z,21.7
2023-01-29T07:20:58.838Z,21.69
2023-01-29T07:22:03.073Z,21.67
2023-01-29T07:23:07.350Z,21.65
2023-01-29T07:24:11.696Z,21.63
2023-01-29T07:25:16.212Z,21.62
2023-01-29T07:26:20.501Z,21.61
2023-01-29T07:27:24.754Z,21.6
2023-01-29T07:28:29.002Z,21.59
2023-01-29T07:29:33.303Z,21.58
2023-01-29T07:30:37.532Z,21.58
2023-01-29T07:31:41.894Z,21.58
2023-01-29T07:32:46.425Z,21.58
2023-01-29T07:33:50.723Z,21.6
2023-01-29T07:34:55.172Z,21.58
2023-01-29T07:35:59.428Z,21.57
2023-01-29T07:37:03.807Z,21.56
2023-01-29T07:38:08.054Z,21.57
2023-01-29T07:39:12.291Z,21.57
2023-01-29T07:40:16.873Z,21.58
2023-01-29T07:41:21.625Z,21.56
2023-01-29T07:42:25.900Z,21.52
2023-01-29T07:43:30.324Z,21.51
2023-01-29T07:44:34.574Z,21.49
2023-01-29T07:45:39.104Z,21.51
2023-01-29T07:46:43.878Z,21.5
2023-01-29T07:47:48.303Z,21.47
2023-01-29T07:48:52.703Z,21.46
2023-01-29T07:49:56.944Z,21.47
2023-01-29T07:51:01.214Z,21.46
2023-01-29T07:52:05.504Z,21.47
2023-01-29T07:53:09.856Z,21.48
2023-01-29T07:54:14.116Z,21.5
2023-01-29T07:55:18.441Z,21.54
2023-01-29T07:56:22.759Z,21.56
2023-01-29T07:57:26.987Z,21.62
2023-01-29T07:58:31.300Z,21.67
2023-01-29T07:59:38.736Z,21.72
2023-01-29T08:00:42.993Z,21.77
2023-01-29T08:01:47.384Z,21.8
2023-01-29T08:02:51.661Z,21.84
2023-01-29T08:03:55.942Z,21.87
2023-01-29T08:05:00.181Z,21.94
2023-01-29T08:06:04.531Z,21.96
2023-01-29T08:07:08.785Z,22
2023-01-29T08:08:13.068Z,22.05
2023-01-29T08:09:17.327Z,22.04
2023-01-29T08:10:21.584Z,22.09
2023-01-29T08:11:25.895Z,22.15
2023-01-29T08:12:30.181Z,22.21
2023-01-29T08:13:34.429Z,22.26
2023-01-29T08:14:38.713Z,22.22
2023-01-29T08:15:42.977Z,22.16
2023-01-29T08:16:47.506Z,22.09
2023-01-29T08:25:08.557Z,21.87
2023-01-29T08:26:12.988Z,21.87
2023-01-29T08:27:17.232Z,21.85
2023-01-29T08:28:21.468Z,21.84
2023-01-29T08:29:25.720Z,21.82
2023-01-29T08:30:30.052Z,21.82
2023-01-29T08:31:34.363Z,21.79
2023-01-29T08:32:38.758Z,21.76
2023-01-29T08:33:42.983Z,21.73
2023-01-29T08:34:47.251Z,21.69
2023-01-29T08:35:51.491Z,21.7
2023-01-29T08:36:55.757Z,21.67
2023-01-29T08:38:00.050Z,21.69
2023-01-29T08:39:04.486Z,21.7
2023-01-29T08:40:08.757Z,21.71
2023-01-29T08:41:13.091Z,21.72
2023-01-29T08:42:17.354Z,21.73
2023-01-29T08:43:21.596Z,21.72
2023-01-29T08:44:25.834Z,21.71
2023-01-29T08:45:30.075Z,21.72
2023-01-29T08:46:34.317Z,21.74
2023-01-29T08:47:38.553Z,21.72
2023-01-29T08:48:42.829Z,21.72
2023-01-29T08:49:47.056Z,21.67
2023-01-29T08:50:51.293Z,21.69
2023-01-29T08:51:55.508Z,21.71
2023-01-29T08:52:59.765Z,21.69
2023-01-29T08:54:04.003Z,21.71
2023-01-29T08:55:08.271Z,21.75
2023-01-29T08:56:12.547Z,21.77
2023-01-29T08:57:16.853Z,21.77
2023-01-29T08:58:21.151Z,21.73
2023-01-29T08:59:25.376Z,21.7
2023-01-29T09:00:29.665Z,21.71
2023-01-29T09:01:33.979Z,21.68
2023-01-29T09:02:38.348Z,21.72
2023-01-29T09:03:42.744Z,21.7
2023-01-29T09:04:47.022Z,21.67
2023-01-29T09:05:51.623Z,21.68
2023-01-29T09:06:55.881Z,21.67
2023-01-29T09:08:00.187Z,21.64
2023-01-29T09:09:04.443Z,21.61
2023-01-29T09:10:08.698Z,21.63
2023-01-29T09:11:12.969Z,21.6
2023-01-29T09:12:17.221Z,21.6
2023-01-29T09:13:21.587Z,21.61
2023-01-29T09:14:25.887Z,21.67
2023-01-29T09:15:30.135Z,21.75
2023-01-29T09:16:34.473Z,21.84
2023-01-29T09:17:38.803Z,21.9
2023-01-29T09:18:43.093Z,22.02
2023-01-29T09:19:47.439Z,22.12
2023-01-29T09:20:51.698Z,22.18
2023-01-29T09:21:55.972Z,22.24
2023-01-29T09:23:00.339Z,22.31
2023-01-29T09:24:04.837Z,22.35
2023-01-29T09:25:09.071Z,22.41
2023-01-29T09:26:13.439Z,22.45
2023-01-29T09:27:17.785Z,22.46
2023-01-29T09:28:22.042Z,22.46
2023-01-29T09:29:26.297Z,22.46
2023-01-29T09:30:30.529Z,22.46
2023-01-29T09:31:34.869Z,22.45
2023-01-29T09:32:55.063Z,22.44
2023-01-29T09:33:59.539Z,22.4
2023-01-29T09:35:03.944Z,22.38
2023-01-29T09:36:08.199Z,22.34
2023-01-29T09:37:12.440Z,22.31
2023-01-29T09:38:16.711Z,22.26
2023-01-29T09:39:21.038Z,22.26
2023-01-29T09:40:25.362Z,22.22
2023-01-29T09:41:29.617Z,22.21
2023-01-29T09:42:35.852Z,22.2
2023-01-29T09:43:40.263Z,22.17
2023-01-29T09:44:44.534Z,22.15
2023-01-29T09:45:48.914Z,22.14
2023-01-29T09:46:53.430Z,22.1
2023-01-29T09:47:57.669Z,22.09
2023-01-29T09:49:01.930Z,22.07
2023-01-29T09:50:06.199Z,22.04
2023-01-29T09:51:10.521Z,22.04
2023-01-29T09:52:14.772Z,22.04
2023-01-29T09:53:19.230Z,22.02
2023-01-29T09:54:23.520Z,22
2023-01-29T09:55:27.753Z,21.97
2023-01-29T09:56:32.069Z,21.98
2023-01-29T09:57:36.387Z,21.95
2023-01-29T09:58:40.656Z,21.93
2023-01-29T09:59:44.957Z,21.91
2023-01-29T10:00:49.221Z,21.89
2023-01-29T10:01:53.590Z,21.86
2023-01-29T10:02:58.303Z,21.84
2023-01-29T10:04:02.610Z,21.83
2023-01-29T10:05:07.021Z,21.85
2023-01-29T10:06:11.450Z,21.91
2023-01-29T10:07:15.688Z,21.98
2023-01-29T10:08:19.982Z,22.03
2023-01-29T10:09:24.274Z,21.98
2023-01-29T10:10:28.580Z,22
2023-01-29T10:11:32.857Z,21.97
2023-01-29T10:12:37.160Z,21.95
2023-01-29T10:13:41.438Z,21.94
2023-01-29T10:14:45.764Z,21.98
2023-01-29T10:15:49.984Z,21.97
2023-01-29T10:16:54.273Z,21.97
2023-01-29T10:17:58.632Z,22
2023-01-29T10:19:02.919Z,22.02
2023-01-29T10:20:07.458Z,22.04
2023-01-29T10:21:11.839Z,22.07
2023-01-29T10:22:16.158Z,22.1
2023-01-29T10:23:20.395Z,22.11
2023-01-29T10:24:24.670Z,22.17
2023-01-29T10:25:28.983Z,22.19
2023-01-29T10:26:33.517Z,22.22
2023-01-29T10:27:37.943Z,22.24
2023-01-29T10:28:42.244Z,22.26
2023-01-29T10:29:46.579Z,22.26
2023-01-29T10:30:51.046Z,22.28
2023-01-29T10:31:56.016Z,22.3
2023-01-29T10:33:00.800Z,22.3
2023-01-29T10:34:05.063Z,22.33
2023-01-29T10:35:09.327Z,22.31
2023-01-29T10:36:13.641Z,22.32
2023-01-29T10:37:17.930Z,22.35
2023-01-29T10:38:22.262Z,22.35
2023-01-29T10:39:26.516Z,22.32
2023-01-29T10:40:30.810Z,22.32
2023-01-29T10:41:35.051Z,22.32
2023-01-29T10:42:39.316Z,22.33
2023-01-29T10:43:43.663Z,22.31
2023-01-29T10:44:47.942Z,22.29
2023-01-29T10:45:52.236Z,22.27
2023-01-29T10:46:56.580Z,22.29
2023-01-29T10:48:00.991Z,22.26
2023-01-29T10:49:05.299Z,22.27
2023-01-29T10:50:09.567Z,22.28
2023-01-29T10:51:13.841Z,22.25
2023-01-29T10:52:18.217Z,22.26
2023-01-29T10:53:22.532Z,22.29
2023-01-29T10:54:26.910Z,22.27
2023-01-29T10:55:31.168Z,22.29
2023-01-29T10:56:35.429Z,22.29
2023-01-29T10:57:39.755Z,22.27
2023-01-29T10:58:46.051Z,22.28
2023-01-29T10:59:50.900Z,22.28
2023-01-29T11:00:55.242Z,22.28
2023-01-29T11:01:59.613Z,22.27
2023-01-29T11:03:05.239Z,22.26
2023-01-29T11:04:29.208Z,22.26
2023-01-29T11:05:33.539Z,22.24
2023-01-29T11:06:37.938Z,22.27
2023-01-29T11:07:42.276Z,22.27
2023-01-29T11:08:46.745Z,22.3
2023-01-29T11:09:51.017Z,22.3
2023-01-29T11:10:55.303Z,22.31
2023-01-29T11:11:59.744Z,22.31
2023-01-29T11:13:04.093Z,22.31
2023-01-29T11:14:08.512Z,22.32
2023-01-29T11:15:13.007Z,22.35
2023-01-29T11:16:17.276Z,22.37
2023-01-29T11:17:21.654Z,22.38
2023-01-29T11:18:26.077Z,22.37
2023-01-29T11:19:30.442Z,22.38
2023-01-29T11:20:34.741Z,22.39
2023-01-29T11:21:39.014Z,22.4
2023-01-29T11:22:43.390Z,22.41
2023-01-29T11:23:47.735Z,22.41
2023-01-29T11:24:52.194Z,22.43
2023-01-29T11:25:56.447Z,22.44
2023-01-29T11:27:00.749Z,22.47
2023-01-29T11:28:05.316Z,22.51
2023-01-29T11:29:09.591Z,22.55
2023-01-29T11:30:14.077Z,22.55
2023-01-29T11:31:19.695Z,22.56
2023-01-29T11:32:24.293Z,22.61
2023-01-29T11:33:28.595Z,22.65
2023-01-29T11:34:32.877Z,22.7
2023-01-29T11:35:37.239Z,22.7
2023-01-29T11:36:41.513Z,22.7
2023-01-29T11:37:45.976Z,22.7
2023-01-29T11:38:50.252Z,22.76
2023-01-29T11:39:54.471Z,22.78
2023-01-29T11:40:58.789Z,22.77
2023-01-29T11:42:03.043Z,22.72
2023-01-29T11:43:07.332Z,22.74
2023-01-29T11:44:11.626Z,22.76
2023-01-29T11:45:15.939Z,22.75
2023-01-29T11:46:20.373Z,22.77
2023-01-29T11:47:24.830Z,22.74
2023-01-29T11:48:29.092Z,22.74
2023-01-29T11:49:33.434Z,22.73
2023-01-29T11:50:37.837Z,22.71
2023-01-29T11:51:42.199Z,22.72
2023-01-29T11:52:46.495Z,22.7
2023-01-29T11:53:50.774Z,22.69
2023-01-29T11:54:55.046Z,22.67
2023-01-29T11:55:59.355Z,22.67
2023-01-29T11:57:03.620Z,22.69
2023-01-29T11:58:07.870Z,22.75
2023-01-29T11:59:12.152Z,22.69
2023-01-29T12:00:16.750Z,22.63
2023-01-29T12:01:22.747Z,22.55
2023-01-29T12:02:26.989Z,22.52
2023-01-29T12:03:31.327Z,22.49
2023-01-29T12:04:35.703Z,22.44
2023-01-29T12:05:39.975Z,22.43
2023-01-29T12:06:44.326Z,22.4
2023-01-29T12:07:48.587Z,22.39
2023-01-29T12:08:52.910Z,22.38
2023-01-29T12:09:57.212Z,22.36
2023-01-29T12:11:01.457Z,22.34
2023-01-29T12:12:05.702Z,22.31
2023-01-29T12:13:09.997Z,22.3
2023-01-29T12:14:14.406Z,22.3
2023-01-29T12:15:18.693Z,22.29
2023-01-29T12:16:23.004Z,22.27
2023-01-29T12:17:27.395Z,22.26
2023-01-29T12:18:31.638Z,22.27
2023-01-29T12:19:35.924Z,22.29
2023-01-29T12:20:40.153Z,22.27
2023-01-29T12:21:44.427Z,22.27
2023-01-29T12:22:48.703Z,22.29
2023-01-29T12:23:52.986Z,22.26
2023-01-29T12:24:57.235Z,22.28
2023-01-29T12:26:01.474Z,22.31
2023-01-29T12:27:05.709Z,22.3
2023-01-29T12:28:10.000Z,22.29
2023-01-29T12:29:14.261Z,22.28
2023-01-29T12:30:18.982Z,22.3
2023-01-29T12:31:23.519Z,22.32
2023-01-29T12:32:27.815Z,22.35
2023-01-29T12:33:32.044Z,22.35
2023-01-29T12:34:36.304Z,22.34
2023-01-29T12:35:40.594Z,22.38
2023-01-29T12:36:45.044Z,22.37
2023-01-29T12:37:49.280Z,22.34
2023-01-29T12:38:53.538Z,22.34
2023-01-29T12:39:57.857Z,22.33
2023-01-29T12:41:02.146Z,22.31
2023-01-29T12:42:06.382Z,22.29
2023-01-29T12:43:10.633Z,22.28
2023-01-29T12:44:14.875Z,22.26
2023-01-29T12:45:19.107Z,22.24
2023-01-29T12:46:23.462Z,22.24
2023-01-29T12:47:27.860Z,22.23
2023-01-29T12:48:32.113Z,22.22
2023-01-29T12:49:36.386Z,22.22
2023-01-29T12:50:40.618Z,22.21
2023-01-29T12:51:44.897Z,22.2
2023-01-29T12:52:49.155Z,22.2
2023-01-29T12:53:53.546Z,22.18
2023-01-29T12:54:57.822Z,22.17
2023-01-29T12:56:02.101Z,22.17
2023-01-29T12:57:06.411Z,22.17
2023-01-29T12:58:10.665Z,22.17
2023-01-29T12:59:15.070Z,22.16
2023-01-29T13:00:19.580Z,22.15
2023-01-29T13:01:24.075Z,22.15
2023-01-29T13:02:28.320Z,22.15
2023-01-29T13:03:33.161Z,22.14
2023-01-29T13:04:38.695Z,22.14
2023-01-29T13:05:43.101Z,22.13
2023-01-29T13:06:47.467Z,22.12
2023-01-29T13:07:52.030Z,22.12
2023-01-29T13:08:56.326Z,22.14
2023-01-29T13:10:00.678Z,22.13
2023-01-29T13:11:05.366Z,22.12
2023-01-29T13:12:09.615Z,22.13
2023-01-29T13:13:13.852Z,22.13
2023-01-29T13:14:18.195Z,22.11
2023-01-29T13:15:22.457Z,22.12
2023-01-29T13:16:26.728Z,22.11
2023-01-29T13:17:31.023Z,22.11
2023-01-29T13:18:35.321Z,22.11
2023-01-29T13:19:39.578Z,22.1
2023-01-29T13:20:43.808Z,22.04
2023-01-29T13:21:48.190Z,22.05
2023-01-29T13:22:52.453Z,22.06
2023-01-29T13:23:56.739Z,22.06
2023-01-29T13:25:04.919Z,22.09
2023-01-29T13:26:10.071Z,22.09
2023-01-29T13:27:17.341Z,22.11
2023-01-29T13:28:24.479Z,22.13
2023-01-29T13:29:28.766Z,22.18
2023-01-29T13:30:33.162Z,22.22
2023-01-29T13:31:37.556Z,22.27
2023-01-29T13:32:41.889Z,22.33
2023-01-29T13:33:46.177Z,22.36
2023-01-29T13:34:50.427Z,22.4
2023-01-29T13:35:54.717Z,22.43
2023-01-29T13:36:59.019Z,22.44
2023-01-29T13:38:03.266Z,22.43
2023-01-29T13:39:07.514Z,22.45
2023-01-29T13:40:11.838Z,22.47
2023-01-29T13:41:16.102Z,22.46
2023-01-29T13:42:20.453Z,22.47
2023-01-29T13:43:24.688Z,22.5
2023-01-29T13:44:28.959Z,22.48
2023-01-29T13:45:33.244Z,22.48
2023-01-29T13:46:37.678Z,22.47
2023-01-29T13:47:41.917Z,22.47
2023-01-29T13:48:46.200Z,22.5
2023-01-29T13:49:50.653Z,22.49
2023-01-29T13:50:54.916Z,22.47
2023-01-29T13:51:59.138Z,22.48
2023-01-29T13:53:03.417Z,22.48
2023-01-29T13:54:07.719Z,22.52
2023-01-29T13:55:12.018Z,22.57
2023-01-29T13:56:16.292Z,22.66
2023-01-29T13:57:20.543Z,22.77
2023-01-29T13:58:24.806Z,22.84
2023-01-29T13:59:29.056Z,22.89
2023-01-29T14:00:33.323Z,22.96
2023-01-29T14:01:37.610Z,23
2023-01-29T14:02:41.927Z,23.03